Downstream station:
SHEF ID: JOPM7 Shoal Creek above Joplin, MO
STATION TYPE:
Regulating: Stage = 10.00, Flow = 6333
PRECIP STAGE RIV-FLOW BAT-LOAD
in ft cfs volt
Ccp-Rev Ccp-Rev Ccp-Rev Ccp-Rev
(US/Central)
04/07 00:00 0.00 3.37 672 12.54
04/07 01:00 0.00 3.38 676 12.54
04/07 02:00 0.00 3.37 672 12.54
04/07 03:00 0.00 3.36 668 12.48
04/07 04:00 0.00 3.34 659 12.48
04/07 05:00 0.00 3.36 668 12.48
04/07 06:00 0.00 3.34 659 12.48
04/07 07:00 0.00 3.32 651 12.42
04/07 08:00 0.00 3.34 659 12.54
04/07 09:00 0.00 3.32 651 12.71
04/07 10:00 0.00 3.31 647 13.36
04/07 11:00 0.00 3.32 651 14.41
04/07 12:00 0.00 3.33 655 12.95
04/07 13:00 0.00 3.31 647 12.89
04/07 14:00 0.00 3.31 647 13.94
04/07 15:00 0.00 3.31 647 12.77
04/07 16:00 0.00 3.25 622 13.88
04/07 17:00 0.00 3.27 630 12.71
04/07 18:00 0.00 3.30 643 12.71
04/07 19:00 0.00 3.29 639 12.65
04/07 20:00 0.00 3.30 643 12.60
04/07 21:00 0.00 3.28 635 12.60
04/07 22:00 0.00 3.30 643 12.54
04/07 23:00 0.00 3.26 626 12.54